createdAt,value
2022-11-28T00:01:24.487Z,85.36
2022-11-28T00:03:51.819Z,85.37
2022-11-28T00:06:19.106Z,85.51
2022-11-28T00:08:46.335Z,85.68
2022-11-28T00:11:14.986Z,85.80
2022-11-28T00:13:42.977Z,86.18
2022-11-28T00:16:16.394Z,86.23
2022-11-28T00:18:44.184Z,86.37
2022-11-28T00:21:13.448Z,86.65
2022-11-28T00:23:41.533Z,86.31
2022-11-28T00:26:10.488Z,86.60
2022-11-28T00:28:37.995Z,87.20
2022-11-28T00:31:05.223Z,86.73
2022-11-28T00:33:33.489Z,86.89
2022-11-28T00:36:02.023Z,86.88
2022-11-28T00:38:29.841Z,87.07
2022-11-28T00:41:16.146Z,87.02
2022-11-28T00:43:44.689Z,87.01
2022-11-28T00:46:13.285Z,87.14
2022-11-28T00:48:41.343Z,86.79
2022-11-28T00:51:23.302Z,87.04
2022-11-28T00:53:51.798Z,86.92
2022-11-28T00:56:24.671Z,86.90
2022-11-28T00:58:52.325Z,87.26
2022-11-28T01:01:25.829Z,87.07
2022-11-28T01:03:55.461Z,87.22
2022-11-28T01:06:24.205Z,87.46
2022-11-28T01:08:51.974Z,87.01
2022-11-28T01:11:19.430Z,87.44
2022-11-28T01:13:46.395Z,86.65
2022-11-28T01:16:13.429Z,86.66
2022-11-28T01:18:40.541Z,87.10
2022-11-28T01:21:08.524Z,86.40
2022-11-28T01:23:36.113Z,86.24
2022-11-28T01:26:05.721Z,86.39
2022-11-28T01:28:33.512Z,86.40
2022-11-28T01:31:21.813Z,86.21
2022-11-28T01:33:49.303Z,86.35
2022-11-28T01:36:17.191Z,86.49
2022-11-28T01:38:44.595Z,85.75
2022-11-28T01:41:12.321Z,86.25
2022-11-28T01:43:57.818Z,86.00
2022-11-28T01:46:24.804Z,86.11
2022-11-28T01:48:52.913Z,85.94
2022-11-28T01:51:20.623Z,86.11
2022-11-28T01:53:48.615Z,86.14
2022-11-28T01:56:23.424Z,86.61
2022-11-28T01:58:56.710Z,86.21
2022-11-28T02:01:25.397Z,86.45
2022-11-28T02:03:53.016Z,86.63
2022-11-28T02:06:23.838Z,87.57
2022-11-28T02:08:54.937Z,87.13
2022-11-28T02:11:36.936Z,86.99
2022-11-28T02:14:25.075Z,87.28
2022-11-28T02:17:21.298Z,87.56
2022-11-28T02:20:06.904Z,87.71
2022-11-28T02:22:51.619Z,87.98
2022-11-28T02:25:43.288Z,87.64
2022-11-28T02:28:47.330Z,87.83
2022-11-28T02:31:44.962Z,87.95
2022-11-28T02:34:20.512Z,87.40
2022-11-28T02:36:55.699Z,87.97
2022-11-28T02:39:45.555Z,88.13
2022-11-28T02:42:23.936Z,88.08
2022-11-28T02:45:05.928Z,88.04
2022-11-28T02:47:36.628Z,88.33
2022-11-28T02:50:22.146Z,88.35
2022-11-28T02:53:02.480Z,88.78
2022-11-28T02:55:29.886Z,88.48
2022-11-28T02:57:56.909Z,88.56
2022-11-28T03:00:28.900Z,88.88
2022-11-28T03:03:23.547Z,89.03
2022-11-28T03:06:10.642Z,89.01
2022-11-28T03:08:56.206Z,88.69
2022-11-28T03:11:55.237Z,89.50
2022-11-28T03:14:42.641Z,88.93
2022-11-28T03:17:24.992Z,89.38
2022-11-28T03:20:10.269Z,88.57
2022-11-28T03:22:48.997Z,88.54
2022-11-28T03:25:37.502Z,89.14
2022-11-28T03:28:11.570Z,88.03
2022-11-28T03:30:46.070Z,88.79
2022-11-28T03:33:16.468Z,88.48
2022-11-28T03:35:54.577Z,88.83
2022-11-28T03:38:32.573Z,88.23
2022-11-28T03:41:03.289Z,88.43
2022-11-28T03:43:36.911Z,88.65
2022-11-28T03:46:08.684Z,88.06
2022-11-28T03:48:40.420Z,88.84
2022-11-28T03:51:16.316Z,88.67
2022-11-28T03:53:59.668Z,87.78
2022-11-28T03:56:45.903Z,88.26
2022-11-28T03:59:26.519Z,88.40
2022-11-28T04:02:11.356Z,88.91
2022-11-28T04:04:59.937Z,89.16
2022-11-28T04:07:54.586Z,88.36
2022-11-28T04:10:41.786Z,88.79
2022-11-28T04:13:14.124Z,88.42
2022-11-28T04:16:01.904Z,88.65
2022-11-28T04:18:51.627Z,88.65
2022-11-28T04:21:24.165Z,88.03
2022-11-28T04:23:55.248Z,88.43
2022-11-28T04:26:33.868Z,88.69
2022-11-28T04:29:08.363Z,87.81
2022-11-28T04:31:36.880Z,87.60
2022-11-28T04:34:09.196Z,87.92
2022-11-28T04:36:39.625Z,88.04
2022-11-28T04:39:13.141Z,87.85
2022-11-28T04:41:45.898Z,87.92
2022-11-28T04:44:19.848Z,87.51
2022-11-28T04:46:52.865Z,87.46
2022-11-28T04:49:19.915Z,87.41
2022-11-28T04:51:57.113Z,87.65
2022-11-28T04:54:35.502Z,87.75
2022-11-28T04:57:14.821Z,87.34
2022-11-28T04:59:43.261Z,87.09
2022-11-28T05:02:12.271Z,87.54
2022-11-28T05:04:39.565Z,87.24
2022-11-28T05:07:08.581Z,87.61
2022-11-28T05:09:36.457Z,87.85
2022-11-28T05:12:03.544Z,87.41
2022-11-28T05:14:30.511Z,87.66
2022-11-28T05:16:57.420Z,87.47
2022-11-28T05:19:24.431Z,87.23
2022-11-28T05:21:53.275Z,87.40
2022-11-28T05:24:22.275Z,87.04
2022-11-28T05:26:49.578Z,86.23
2022-11-28T05:29:16.916Z,86.94
2022-11-28T05:31:43.998Z,86.81
2022-11-28T05:34:10.981Z,86.42
2022-11-28T05:36:37.855Z,86.79
2022-11-28T05:39:04.736Z,86.47
2022-11-28T05:41:33.008Z,85.94
2022-11-28T05:44:01.333Z,85.78
2022-11-28T05:46:29.721Z,86.46
2022-11-28T05:48:57.304Z,86.25
2022-11-28T05:51:24.791Z,85.36
2022-11-28T05:53:51.785Z,85.25
2022-11-28T05:56:20.606Z,85.48
2022-11-28T05:58:47.585Z,84.78
2022-11-28T06:01:20.305Z,84.85
2022-11-28T06:03:47.662Z,84.89
2022-11-28T06:06:18.543Z,85.02
2022-11-28T06:08:46.916Z,84.82
2022-11-28T06:11:15.073Z,84.23
2022-11-28T06:13:43.474Z,84.79
2022-11-28T06:16:12.390Z,84.36
2022-11-28T06:18:40.113Z,84.52
2022-11-28T06:21:09.649Z,84.97
2022-11-28T06:23:37.464Z,84.38
2022-11-28T06:26:09.899Z,84.34
2022-11-28T06:28:37.362Z,84.47
2022-11-28T06:31:05.262Z,84.15
2022-11-28T06:33:32.576Z,84.76
2022-11-28T06:36:04.495Z,84.76
2022-11-28T06:38:31.441Z,84.32
2022-11-28T06:41:04.495Z,84.71
2022-11-28T06:43:32.052Z,83.94
2022-11-28T06:45:59.045Z,84.62
2022-11-28T06:48:26.712Z,84.24
2022-11-28T06:50:53.897Z,84.18
2022-11-28T06:53:20.942Z,84.14
2022-11-28T06:55:47.928Z,84.38
2022-11-28T06:58:14.908Z,83.97
2022-11-28T07:00:41.977Z,84.29
2022-11-28T07:03:08.962Z,83.44
2022-11-28T07:05:35.896Z,83.18
2022-11-28T07:08:02.812Z,83.01
2022-11-28T07:10:30.146Z,82.96
2022-11-28T07:13:04.882Z,83.29
2022-11-28T07:15:32.480Z,83.29
2022-11-28T07:17:59.413Z,82.25
2022-11-28T07:20:26.346Z,81.81
2022-11-28T07:22:53.400Z,82.04
2022-11-28T07:25:20.523Z,81.82
2022-11-28T07:27:47.473Z,81.91
2022-11-28T07:30:14.557Z,81.55
2022-11-28T07:32:41.766Z,81.24
2022-11-28T07:35:09.115Z,80.95
2022-11-28T07:37:36.481Z,81.06
2022-11-28T07:40:05.125Z,80.73
2022-11-28T07:42:32.091Z,80.43
2022-11-28T07:45:05.485Z,80.30
2022-11-28T07:47:32.504Z,79.86
2022-11-28T07:49:59.393Z,80.01
2022-11-28T07:52:26.309Z,79.96
2022-11-28T07:54:53.245Z,80.02
2022-11-28T07:57:20.295Z,79.13
2022-11-28T07:59:47.206Z,80.46
2022-11-28T08:02:14.292Z,80.82
2022-11-28T08:04:48.380Z,81.23
2022-11-28T08:07:17.427Z,81.62
2022-11-28T08:09:44.849Z,81.93
2022-11-28T08:12:11.931Z,82.20
2022-11-28T08:14:38.862Z,82.84
2022-11-28T08:17:05.783Z,82.27
2022-11-28T08:19:35.383Z,82.06
2022-11-28T08:22:02.751Z,82.95
2022-11-28T08:24:29.679Z,83.18
2022-11-28T08:26:57.288Z,83.21
2022-11-28T08:29:24.183Z,83.43
2022-11-28T08:31:51.131Z,82.82
2022-11-28T08:34:18.055Z,83.84
2022-11-28T08:36:45.057Z,83.78
2022-11-28T08:39:27.795Z,84.21
2022-11-28T08:41:59.705Z,84.10
2022-11-28T08:44:30.168Z,84.67
2022-11-28T08:46:57.467Z,85.35
2022-11-28T08:49:24.405Z,85.54
2022-11-28T08:51:51.379Z,84.94
2022-11-28T08:54:18.337Z,84.48
2022-11-28T08:56:47.967Z,85.00
2022-11-28T08:59:14.967Z,85.12
2022-11-28T09:01:41.921Z,85.09
2022-11-28T09:04:08.981Z,84.82
2022-11-28T09:06:39.330Z,83.18
2022-11-28T09:09:06.428Z,83.03
2022-11-28T09:11:33.461Z,83.34
2022-11-28T09:14:00.687Z,83.06
2022-11-28T09:16:27.841Z,83.35
2022-11-28T09:18:57.612Z,82.61
2022-11-28T09:21:24.623Z,82.99
2022-11-28T09:23:54.450Z,82.73
2022-11-28T09:26:24.738Z,83.40
2022-11-28T09:28:52.434Z,83.81
2022-11-28T09:31:20.683Z,84.56
2022-11-28T09:33:49.559Z,84.49
2022-11-28T09:36:22.261Z,84.40
2022-11-28T09:38:49.898Z,84.90
2022-11-28T09:41:28.857Z,85.63
2022-11-28T09:43:59.039Z,85.53
2022-11-28T10:18:58.128Z,86.66
2022-11-28T10:21:37.318Z,86.32
2022-11-28T10:24:11.976Z,86.20
2022-11-28T10:26:44.584Z,86.16
2022-11-28T10:29:26.666Z,85.58
2022-11-28T10:31:59.986Z,85.79
2022-11-28T10:34:34.912Z,85.19
2022-11-28T10:37:11.145Z,85.42
2022-11-28T10:39:43.389Z,85.48
2022-11-28T10:42:35.642Z,85.25
2022-11-28T10:45:05.261Z,86.84
2022-11-28T10:47:50.318Z,86.03
2022-11-28T10:50:47.829Z,85.79
2022-11-28T10:53:14.680Z,85.53
2022-11-28T10:56:14.238Z,86.85
2022-11-28T10:58:47.005Z,86.81
2022-11-28T11:01:14.225Z,87.11
2022-11-28T11:03:41.842Z,87.45
2022-11-28T11:06:09.191Z,87.22
2022-11-28T11:08:38.166Z,87.99
2022-11-28T11:11:19.402Z,87.37
2022-11-28T11:14:03.043Z,87.66
2022-11-28T11:16:56.538Z,88.18
2022-11-28T11:19:23.429Z,88.07
2022-11-28T11:22:21.148Z,87.90
2022-11-28T11:25:12.929Z,88.09
2022-11-28T11:27:51.840Z,88.34
2022-11-28T11:30:35.108Z,88.21
2022-11-28T11:33:05.980Z,87.51
2022-11-28T11:35:45.029Z,87.99
2022-11-28T11:38:20.817Z,88.06
2022-11-28T11:40:52.028Z,87.73
2022-11-28T11:43:24.638Z,87.66
2022-11-28T11:46:10.298Z,87.30
2022-11-28T11:48:39.618Z,87.63
2022-11-28T11:51:08.143Z,87.48
2022-11-28T11:53:35.100Z,87.49
2022-11-28T11:56:03.857Z,87.15
2022-11-28T11:58:52.912Z,87.16
2022-11-28T12:01:21.796Z,87.09
2022-11-28T12:03:51.521Z,86.95
2022-11-28T12:06:25.249Z,86.56
2022-11-28T12:08:54.002Z,86.42
2022-11-28T12:11:32.003Z,86.33
2022-11-28T12:14:13.684Z,86.88
2022-11-28T12:17:00.576Z,86.64
2022-11-28T12:19:46.015Z,86.95
2022-11-28T12:22:25.129Z,86.42
2022-11-28T12:25:11.776Z,87.34
2022-11-28T12:27:50.330Z,86.73
2022-11-28T12:30:20.378Z,87.03
2022-11-28T12:33:06.092Z,87.33
2022-11-28T12:35:42.438Z,87.12
2022-11-28T12:38:15.200Z,87.36
2022-11-28T12:40:52.071Z,87.01
2022-11-28T12:43:24.853Z,87.24
2022-11-28T12:46:23.330Z,87.42
2022-11-28T12:49:12.273Z,87.39
2022-11-28T12:52:04.030Z,86.90
2022-11-28T12:55:01.504Z,87.07
2022-11-28T12:57:50.543Z,87.31
2022-11-28T13:00:28.009Z,86.87
2022-11-28T13:03:13.108Z,86.70
2022-11-28T13:05:58.210Z,86.87
2022-11-28T13:08:28.087Z,86.36
2022-11-28T13:11:18.182Z,86.50
2022-11-28T13:13:49.864Z,86.18
2022-11-28T13:16:26.432Z,85.74
2022-11-28T13:19:16.880Z,85.77
2022-11-28T13:21:49.668Z,85.86
2022-11-28T13:24:25.541Z,85.24
2022-11-28T13:27:05.887Z,85.82
2022-11-28T13:29:56.713Z,85.75
2022-11-28T13:32:55.321Z,86.17
2022-11-28T13:35:23.830Z,85.24
2022-11-28T13:40:52.796Z,85.39
2022-11-28T13:43:22.538Z,84.84
2022-11-28T13:45:52.628Z,84.99
2022-11-28T13:49:13.251Z,85.72
2022-11-28T13:51:33.669Z,85.33
2022-11-28T13:54:19.394Z,85.68
2022-11-28T13:57:11.167Z,85.36
2022-11-28T13:59:38.731Z,84.81
2022-11-28T14:02:25.872Z,84.66
2022-11-28T14:04:52.940Z,85.43
2022-11-28T14:07:28.038Z,85.12
2022-11-28T14:10:09.789Z,85.26
2022-11-28T14:13:05.613Z,84.87
2022-11-28T14:15:53.384Z,84.96
2022-11-28T14:18:48.289Z,85.08
2022-11-28T14:21:30.701Z,85.32
2022-11-28T14:24:22.195Z,85.80
2022-11-28T14:26:58.954Z,85.78
2022-11-28T14:29:38.679Z,86.21
2022-11-28T14:32:30.029Z,86.07
2022-11-28T14:34:54.875Z,86.86
2022-11-28T14:37:22.098Z,86.48
2022-11-28T14:39:50.706Z,86.75
2022-11-28T14:42:37.201Z,86.85
2022-11-28T14:45:49.593Z,86.53
2022-11-28T14:48:22.380Z,86.93
2022-11-28T14:50:57.556Z,87.55
2022-11-28T14:53:33.958Z,87.30
2022-11-28T14:56:16.048Z,87.58
2022-11-28T14:58:48.014Z,88.01
2022-11-28T15:01:25.419Z,88.17
2022-11-28T15:03:59.202Z,88.48
2022-11-28T15:06:36.166Z,89.13
2022-11-28T15:09:07.788Z,89.28
2022-11-28T15:11:59.634Z,89.46
2022-11-28T15:14:29.222Z,89.60
2022-11-28T15:17:00.667Z,89.82
2022-11-28T15:19:33.186Z,90.23
2022-11-28T15:22:00.773Z,90.13
2022-11-28T15:24:30.762Z,90.31
2022-11-28T15:27:07.129Z,90.62
2022-11-28T15:29:35.697Z,90.17
2022-11-28T15:32:04.129Z,90.67
2022-11-28T15:34:33.604Z,89.88
2022-11-28T15:37:04.725Z,90.61
2022-11-28T15:39:39.992Z,90.25
2022-11-28T15:42:25.068Z,90.95
2022-11-28T15:45:03.865Z,90.57
2022-11-28T15:47:31.452Z,90.43
2022-11-28T15:50:05.653Z,91.14
2022-11-28T15:52:32.851Z,90.46
2022-11-28T15:55:00.169Z,90.69
2022-11-28T15:57:28.658Z,91.04
2022-11-28T15:59:56.698Z,90.68
2022-11-28T16:02:29.492Z,91.14
2022-11-28T16:05:11.359Z,91.04
2022-11-28T16:07:43.346Z,91.73
2022-11-28T16:10:22.247Z,91.31
2022-11-28T16:12:49.888Z,91.14
2022-11-28T16:15:22.448Z,91.22
2022-11-28T16:17:49.886Z,90.95
2022-11-28T16:20:23.542Z,91.11
2022-11-28T16:22:50.524Z,91.73
2022-11-28T16:25:23.999Z,91.80
2022-11-28T16:27:53.445Z,91.24
2022-11-28T16:30:23.710Z,91.47
2022-11-28T16:32:52.820Z,92.01
2022-11-28T16:35:31.750Z,91.14
2022-11-28T16:38:05.998Z,91.46
2022-11-28T16:40:33.321Z,91.71
2022-11-28T16:43:03.030Z,91.84
2022-11-28T16:45:32.886Z,91.80
2022-11-28T16:48:15.424Z,91.34
2022-11-28T16:51:02.171Z,91.63
2022-11-28T16:53:55.779Z,91.57
2022-11-28T16:56:31.591Z,91.79
2022-11-28T16:59:09.160Z,91.55
2022-11-28T17:01:36.398Z,91.43
2022-11-28T17:04:04.182Z,91.35
2022-11-28T17:06:37.689Z,91.69
2022-11-28T17:09:11.193Z,91.69
2022-11-28T17:11:43.130Z,91.23
2022-11-28T17:14:13.850Z,91.88
2022-11-28T17:16:42.168Z,91.46
2022-11-28T17:19:09.440Z,92.21
2022-11-28T17:21:42.071Z,91.83
2022-11-28T17:24:23.370Z,91.53
2022-11-28T17:26:51.567Z,91.61
2022-11-28T17:29:19.557Z,91.70
2022-11-28T17:31:48.368Z,92.02
2022-11-28T17:34:20.970Z,92.21
2022-11-28T17:36:48.143Z,91.59
2022-11-28T17:39:15.427Z,91.71
2022-11-28T17:41:42.945Z,92.25
2022-11-28T17:44:21.957Z,92.17
2022-11-28T17:46:50.525Z,91.51
2022-11-28T17:49:18.487Z,91.82
2022-11-28T17:51:45.545Z,92.28
2022-11-28T17:54:16.489Z,91.78
2022-11-28T17:56:50.167Z,92.15
2022-11-28T17:59:20.363Z,92.01
2022-11-28T18:01:48.540Z,91.77
2022-11-28T18:04:15.807Z,92.07
2022-11-28T18:06:44.677Z,91.29
2022-11-28T18:09:12.769Z,91.97
2022-11-28T18:11:40.841Z,91.73
2022-11-28T18:14:08.989Z,91.12
2022-11-28T18:16:36.454Z,92.14
2022-11-28T18:19:04.432Z,91.31
2022-11-28T18:21:32.337Z,91.23
2022-11-28T18:23:59.401Z,91.15
2022-11-28T18:26:26.888Z,91.67
2022-11-28T18:28:54.682Z,91.56
2022-11-28T18:31:25.225Z,92.08
2022-11-28T18:33:56.244Z,91.38
2022-11-28T18:36:27.771Z,91.54
2022-11-28T18:39:02.359Z,91.50
2022-11-28T18:41:30.395Z,91.61
2022-11-28T18:44:03.548Z,91.43
2022-11-28T18:46:31.651Z,91.12
2022-11-28T18:48:58.787Z,90.87
2022-11-28T18:51:31.183Z,90.97
2022-11-28T18:53:58.705Z,91.18
2022-11-28T18:56:26.656Z,91.56
2022-11-28T18:58:54.657Z,90.95
2022-11-28T19:01:29.139Z,91.91
2022-11-28T19:04:02.201Z,91.80
2022-11-28T19:06:30.150Z,91.33
2022-11-28T19:08:59.689Z,92.01
2022-11-28T19:11:28.699Z,90.88
2022-11-28T19:13:57.137Z,90.69
2022-11-28T19:16:27.507Z,90.86
2022-11-28T19:18:55.826Z,90.42
2022-11-28T19:21:25.765Z,91.23
2022-11-28T19:23:55.273Z,90.51
2022-11-28T19:26:25.483Z,91.02
2022-11-28T19:28:53.910Z,89.97
2022-11-28T19:31:29.289Z,90.70
2022-11-28T19:34:01.162Z,91.09
2022-11-28T19:36:37.564Z,91.16
2022-11-28T19:39:05.401Z,90.71
2022-11-28T19:41:32.826Z,91.49
2022-11-28T19:44:00.580Z,90.97
2022-11-28T19:46:35.159Z,92.12
2022-11-28T19:49:06.709Z,91.07
2022-11-28T19:51:34.904Z,91.10
2022-11-28T19:54:03.786Z,91.98
2022-11-28T19:56:33.371Z,91.79
2022-11-28T19:59:00.653Z,92.21
2022-11-28T20:01:28.383Z,92.54
2022-11-28T20:03:55.705Z,92.48
2022-11-28T20:06:31.108Z,92.06
2022-11-28T20:09:01.435Z,91.88
2022-11-28T20:11:31.911Z,92.07
2022-11-28T20:14:06.615Z,92.09
2022-11-28T20:16:35.761Z,92.59
2022-11-28T20:19:04.815Z,92.83
2022-11-28T20:21:33.114Z,92.62
2022-11-28T20:24:07.450Z,92.32
2022-11-28T20:26:42.208Z,92.45
2022-11-28T20:29:12.189Z,92.93
2022-11-28T20:31:46.042Z,92.50
2022-11-28T20:34:17.549Z,93.00
2022-11-28T20:36:45.640Z,92.50
2022-11-28T20:39:13.331Z,92.29
2022-11-28T20:41:40.377Z,93.04
2022-11-28T20:44:07.603Z,93.43
2022-11-28T20:46:35.706Z,93.17
2022-11-28T20:49:05.796Z,92.34
2022-11-28T20:51:34.078Z,92.98
2022-11-28T20:54:01.987Z,92.67
2022-11-28T20:56:31.891Z,93.02
2022-11-28T20:59:00.883Z,93.58
2022-11-28T21:01:31.130Z,93.00
2022-11-28T21:03:58.535Z,93.71
2022-11-28T21:06:25.625Z,94.00
2022-11-28T21:08:52.635Z,93.91
2022-11-28T21:11:50.087Z,93.36
2022-11-28T21:14:08.471Z,92.98
2022-11-28T21:16:35.480Z,93.88
2022-11-28T21:19:06.493Z,94.12
2022-11-28T21:21:34.411Z,93.35
2022-11-28T21:24:04.662Z,93.27
2022-11-28T21:26:37.592Z,93.53
2022-11-28T21:29:09.390Z,93.49
2022-11-28T21:31:41.392Z,94.07
2022-11-28T21:34:08.349Z,93.98
2022-11-28T21:36:35.364Z,94.12
2022-11-28T21:39:02.406Z,94.34
2022-11-28T21:41:31.662Z,94.47
2022-11-28T21:43:59.557Z,94.01
2022-11-28T21:46:27.739Z,93.92
2022-11-28T21:48:55.021Z,94.21
2022-11-28T21:51:24.042Z,94.47
2022-11-28T21:53:51.891Z,93.46
2022-11-28T21:56:19.305Z,94.43
2022-11-28T21:58:46.181Z,94.46
2022-11-28T22:01:14.883Z,93.61
2022-11-28T22:03:43.906Z,93.39
2022-11-28T22:06:17.825Z,93.46
2022-11-28T22:08:45.551Z,94.47
2022-11-28T22:11:13.532Z,94.02
2022-11-28T22:13:42.851Z,94.20
2022-11-28T22:16:12.396Z,94.14
2022-11-28T22:18:39.355Z,94.62
2022-11-28T22:21:22.548Z,94.63
2022-11-28T22:23:58.191Z,93.61
2022-11-28T22:26:25.115Z,94.23
2022-11-28T22:28:53.844Z,94.85
2022-11-28T22:31:23.338Z,94.28
2022-11-28T22:33:50.499Z,94.39
2022-11-28T22:36:19.861Z,94.40
2022-11-28T22:38:49.023Z,94.65
2022-11-28T22:41:27.922Z,94.43
2022-11-28T22:43:57.898Z,95.01
2022-11-28T22:46:24.987Z,94.78
2022-11-28T22:48:52.238Z,94.16
2022-11-28T22:51:24.655Z,94.05
2022-11-28T22:53:56.785Z,94.81
2022-11-28T22:56:26.491Z,94.87
2022-11-28T22:58:54.074Z,94.93
2022-11-28T23:01:24.373Z,94.72
2022-11-28T23:03:52.188Z,94.82
2022-11-28T23:06:21.670Z,94.90
2022-11-28T23:08:54.495Z,94.76
2022-11-28T23:11:24.112Z,94.31
2022-11-28T23:13:52.331Z,94.91
2022-11-28T23:16:19.510Z,94.42
2022-11-28T23:18:51.674Z,94.57
2022-11-28T23:21:20.029Z,94.58
2022-11-28T23:23:47.707Z,94.72
2022-11-28T23:26:26.393Z,94.52
2022-11-28T23:28:54.255Z,95.05
2022-11-28T23:31:27.700Z,94.50
2022-11-28T23:33:55.673Z,94.58
2022-11-28T23:36:28.541Z,94.85
2022-11-28T23:38:58.462Z,94.78
2022-11-28T23:41:26.443Z,94.89
2022-11-28T23:43:53.443Z,95.04
2022-11-28T23:46:23.667Z,95.17
2022-11-28T23:48:50.996Z,95.01
2022-11-28T23:51:20.117Z,94.84
2022-11-28T23:53:47.215Z,95.34
2022-11-28T23:56:19.898Z,95.62
2022-11-28T23:58:47.626Z,95.32
